Time;durP1;ratioP1;P1;durP2;ratioP2;P2;SDS_P1;SDS_P2;PMS_P1;PMS_P2;Temp;Humidity;BMP_temperature;BMP_pressure;BME280_temperature;BME280_humidity;BME280_pressure;Samples;Min_cycle;Max_cycle;Signal;HPM_P1;HPM_P2
2022/07/20 00:01:10;;;;;;;;;;;;;;;25.37;35.77;100778.19;5394878;32;34353;-64
2022/07/20 00:04:12;;;;;;;;;;;;;;;25.50;36.07;100779.69;5441381;32;35340;-63
2022/07/20 00:07:14;;;;;;;;;;;;;;;26.18;33.56;100773.00;5405620;32;34940;-65
2022/07/20 00:13:36;;;;;;;;;;;;;;;26.69;31.82;100765.28;5422385;32;44926;-64
2022/07/20 00:16:38;;;;;;;;;;;;;;;26.62;31.52;100764.22;5416441;32;34875;-63
2022/07/20 00:19:40;;;;;;;;;;;;;;;26.74;31.29;100768.38;5431006;32;34498;-78
2022/07/20 00:22:42;;;;;;;;;;;;;;;26.57;31.42;100771.91;5408337;32;35937;-79
2022/07/20 00:25:44;;;;;;;;;;;;;;;26.65;31.27;100770.13;5424199;32;34868;-79
2022/07/20 00:28:46;;;;;;;;;;;;;;;26.35;31.78;100771.34;5418407;32;35672;-78
2022/07/20 00:31:48;;;;;;;;;;;;;;;25.53;33.67;100764.09;5415826;32;33704;-77
2022/07/20 00:34:50;;;;;;;;;;;;;;;24.80;34.91;100774.56;5428053;32;35534;-65
2022/07/20 00:37:52;;;;;;;;;;;;;;;24.95;35.60;100774.12;5397439;32;34603;-64
2022/07/20 00:40:54;;;;;;;;;;;;;;;25.10;36.17;100770.00;5427826;32;35007;-66
2022/07/20 00:44:06;;;;;;;;;;;;;;;25.75;33.96;100775.50;5415173;32;35492;-71
2022/07/20 00:47:07;;;;;;;;;;;;;;;25.98;32.56;100775.97;5408284;32;47773;-77
2022/07/20 00:50:10;;;;;;;;;;;;;;;25.54;33.00;100773.00;5422176;32;38592;-63
2022/07/20 00:53:11;;;;;;;;;;;;;;;25.42;33.36;100775.03;5415835;32;35479;-65
2022/07/20 00:56:14;;;;;;;;;;;;;;;25.50;33.26;100777.81;5415799;32;34997;-78
2022/07/20 00:59:16;;;;;;;;;;;;;;;25.06;34.11;100774.00;5382535;32;35364;-78
2022/07/20 01:02:18;;;;;;;;;;;;;;;25.53;33.76;100774.88;5411822;32;34790;-79
2022/07/20 01:05:20;;;;;;;;;;;;;;;25.43;34.28;100784.78;5408636;32;35249;-63
2022/07/20 01:08:22;;;;;;;;;;;;;;;25.05;36.07;100783.03;5424263;32;35592;-79
2022/07/20 01:11:23;;;;;;;;;;;;;;;24.74;35.96;100791.25;5424034;32;35740;-77
2022/07/20 01:14:25;;;;;;;;;;;;;;;25.70;33.27;100785.84;5402526;32;34352;-71
2022/07/20 01:17:27;;;;;;;;;;;;;;;24.80;34.09;100779.94;5432991;32;35369;-64
2022/07/20 01:20:29;;;;;;;;;;;;;;;25.40;34.13;100774.34;5414239;32;34970;-74
2022/07/20 01:23:31;;;;;;;;;;;;;;;25.46;33.19;100768.38;5431361;32;34254;-63
2022/07/20 01:26:33;;;;;;;;;;;;;;;24.99;35.87;100779.06;5417896;32;35327;-64
2022/07/20 01:29:35;;;;;;;;;;;;;;;24.24;38.22;100785.94;5422398;32;36390;-76
2022/07/20 01:32:37;;;;;;;;;;;;;;;25.36;34.75;100781.00;5428070;32;35362;-78
2022/07/20 01:35:39;;;;;;;;;;;;;;;25.53;34.39;100780.25;5411332;32;35326;-64
2022/07/20 01:38:41;;;;;;;;;;;;;;;24.44;37.11;100794.06;5430042;32;35387;-64
2022/07/20 01:41:43;;;;;;;;;;;;;;;24.72;36.68;100790.53;5419063;32;34838;-66
2022/07/20 01:44:45;;;;;;;;;;;;;;;24.18;39.26;100793.69;5431437;32;35250;-65
2022/07/20 01:47:47;;;;;;;;;;;;;;;24.66;37.04;100791.09;5415459;32;36418;-64
2022/07/20 01:50:48;;;;;;;;;;;;;;;25.31;35.79;100778.75;5423291;32;35079;-77
2022/07/20 01:53:50;;;;;;;;;;;;;;;24.90;37.08;100785.28;5426998;32;34954;-78
2022/07/20 01:56:52;;;;;;;;;;;;;;;25.10;36.59;100784.31;5403370;32;35107;-77
2022/07/20 01:59:54;;;;;;;;;;;;;;;24.74;37.02;100775.13;5409142;32;34640;-63
2022/07/20 02:02:56;;;;;;;;;;;;;;;24.51;37.85;100787.97;5418339;32;34836;-71
2022/07/20 02:05:58;;;;;;;;;;;;;;;23.98;39.63;100792.78;5430059;32;35183;-72
2022/07/20 02:09:00;;;;;;;;;;;;;;;24.79;37.13;100783.59;5415610;32;34487;-80
2022/07/20 02:12:01;;;;;;;;;;;;;;;24.78;37.33;100784.59;5423625;32;34691;-64
2022/07/20 02:15:04;;;;;;;;;;;;;;;24.28;37.81;100792.75;5423153;32;35386;-65
2022/07/20 02:18:07;;;;;;;;;;;;;;;25.05;36.26;100783.91;5402651;32;48360;-64
2022/07/20 02:21:09;;;;;;;;;;;;;;;24.46;38.44;100795.59;5428596;32;35346;-77
2022/07/20 02:24:10;;;;;;;;;;;;;;;24.23;39.33;100795.00;5402023;32;35107;-76
2022/07/20 02:27:12;;;;;;;;;;;;;;;23.81;39.53;100790.75;5417607;32;35410;-63
2022/07/20 02:30:14;;;;;;;;;;;;;;;23.93;40.01;100789.66;5401560;32;36023;-63
2022/07/20 02:33:16;;;;;;;;;;;;;;;24.55;37.52;100792.09;5422336;32;34420;-63
2022/07/20 02:36:18;;;;;;;;;;;;;;;24.93;37.20;100779.66;5423435;32;34435;-63
2022/07/20 02:39:20;;;;;;;;;;;;;;;23.80;39.81;100789.91;5413074;32;35307;-77
2022/07/20 02:42:22;;;;;;;;;;;;;;;23.88;39.61;100792.75;5433536;32;34930;-63
2022/07/20 02:45:24;;;;;;;;;;;;;;;23.30;41.04;100786.22;5415709;32;34891;-63
2022/07/20 02:48:25;;;;;;;;;;;;;;;23.74;40.20;100790.44;5415857;32;34951;-63
2022/07/20 02:51:27;;;;;;;;;;;;;;;23.94;39.41;100794.03;5417687;32;34938;-64
2022/07/20 02:54:29;;;;;;;;;;;;;;;24.26;38.10;100797.38;5421235;32;36173;-64
2022/07/20 02:57:31;;;;;;;;;;;;;;;24.85;36.96;100793.78;5428190;32;34808;-63
2022/07/20 03:00:33;;;;;;;;;;;;;;;24.82;37.03;100794.06;5394466;32;34227;-63
2022/07/20 03:03:35;;;;;;;;;;;;;;;24.65;37.10;100794.78;5431642;32;44837;-63
2022/07/20 03:06:37;;;;;;;;;;;;;;;24.62;37.23;100797.75;5401477;32;35253;-76
2022/07/20 03:09:39;;;;;;;;;;;;;;;24.92;37.19;100796.75;5430760;32;35481;-63
2022/07/20 03:12:41;;;;;;;;;;;;;;;24.97;36.78;100793.63;5417247;32;36395;-65
2022/07/20 03:15:43;;;;;;;;;;;;;;;24.56;38.09;100807.22;5421280;32;34594;-63
2022/07/20 03:18:45;;;;;;;;;;;;;;;24.15;38.87;100804.69;5427429;32;37546;-64
2022/07/20 03:21:47;;;;;;;;;;;;;;;23.71;40.31;100802.31;5413869;32;35094;-77
2022/07/20 03:24:49;;;;;;;;;;;;;;;23.56;40.71;100806.28;5430645;32;34319;-65
2022/07/20 03:27:51;;;;;;;;;;;;;;;24.23;38.89;100805.72;5414640;32;34817;-77
2022/07/20 03:30:53;;;;;;;;;;;;;;;24.20;39.23;100807.81;5429508;32;35360;-77
2022/07/20 03:33:55;;;;;;;;;;;;;;;23.99;39.38;100819.50;5416120;32;34551;-65
2022/07/20 03:36:57;;;;;;;;;;;;;;;23.88;39.67;100821.44;5416287;32;34677;-63
2022/07/20 03:39:59;;;;;;;;;;;;;;;23.95;39.78;100820.75;5414000;32;35385;-77
2022/07/20 03:43:01;;;;;;;;;;;;;;;23.04;42.03;100821.47;5417143;32;34403;-64
2022/07/20 03:46:04;;;;;;;;;;;;;;;23.57;41.01;100823.22;5431936;32;35937;-77
2022/07/20 03:49:06;;;;;;;;;;;;;;;24.00;40.47;100818.50;5414585;32;45254;-77
2022/07/20 03:52:08;;;;;;;;;;;;;;;24.24;40.00;100826.22;5417590;32;34716;-63
2022/07/20 03:55:10;;;;;;;;;;;;;;;24.01;40.18;100838.16;5415684;32;34949;-62
2022/07/20 03:58:11;;;;;;;;;;;;;;;23.80;40.83;100838.22;5410333;32;34773;-77
2022/07/20 04:01:13;;;;;;;;;;;;;;;23.32;41.64;100841.44;5416522;32;34787;-78
2022/07/20 04:04:15;;;;;;;;;;;;;;;23.80;40.44;100840.91;5415487;32;34592;-63
2022/07/20 04:07:17;;;;;;;;;;;;;;;24.03;40.02;100841.56;5428246;32;36405;-79
2022/07/20 04:10:19;;;;;;;;;;;;;;;24.18;39.80;100840.19;5414830;32;34329;-65
2022/07/20 04:13:25;;;;;;;;;;;;;;;24.18;39.91;100837.50;5416084;32;35333;-77
2022/07/20 04:16:27;;;;;;;;;;;;;;;24.02;40.66;100842.53;5414946;32;35433;-64
2022/07/20 04:19:30;;;;;;;;;;;;;;;23.64;41.62;100843.22;5409888;32;35182;-65
2022/07/20 04:22:31;;;;;;;;;;;;;;;24.08;41.00;100850.03;5428253;32;35317;-77
2022/07/20 04:25:33;;;;;;;;;;;;;;;24.95;39.02;100846.72;5415526;32;35504;-76
2022/07/20 04:28:35;;;;;;;;;;;;;;;25.22;38.63;100846.03;5429375;32;44749;-66
2022/07/20 04:31:37;;;;;;;;;;;;;;;24.79;38.97;100840.03;5415259;32;35111;-78
2022/07/20 04:34:39;;;;;;;;;;;;;;;24.34;39.88;100849.59;5428424;32;35558;-77
2022/07/20 04:37:44;;;;;;;;;;;;;;;25.00;38.43;100847.16;5422471;32;35497;-66
2022/07/20 04:40:46;;;;;;;;;;;;;;;25.17;38.03;100841.06;5417855;32;34694;-77
2022/07/20 04:43:48;;;;;;;;;;;;;;;25.01;37.51;100840.78;5432917;32;35340;-79
2022/07/20 04:46:50;;;;;;;;;;;;;;;25.93;36.01;100836.50;5418544;32;35444;-73
2022/07/20 04:49:52;;;;;;;;;;;;;;;26.35;35.30;100833.31;5432693;32;37019;-77
2022/07/20 04:52:54;;;;;;;;;;;;;;;26.37;35.01;100843.94;5416685;32;34642;-64
2022/07/20 04:55:55;;;;;;;;;;;;;;;27.05;33.43;100846.16;5432316;32;35580;-79
2022/07/20 04:58:57;;;;;;;;;;;;;;;27.62;31.91;100842.06;5403051;32;35465;-78
2022/07/20 05:01:59;;;;;;;;;;;;;;;27.67;32.00;100847.84;5396266;32;35365;-65
2022/07/20 05:05:02;;;;;;;;;;;;;;;26.78;32.96;100842.53;5415174;32;34131;-76
2022/07/20 05:08:04;;;;;;;;;;;;;;;26.86;33.11;100850.72;5417141;32;36601;-65
2022/07/20 05:11:06;;;;;;;;;;;;;;;26.90;32.98;100851.25;5432674;32;45234;-65
2022/07/20 05:14:12;;;;;;;;;;;;;;;27.95;31.03;100848.53;5415017;32;35639;-63
2022/07/20 05:17:14;;;;;;;;;;;;;;;28.14;30.81;100855.53;5428368;32;35157;-61
2022/07/20 05:20:16;;;;;;;;;;;;;;;28.52;29.96;100845.22;5418699;32;34825;-77
2022/07/20 05:23:18;;;;;;;;;;;;;;;28.87;28.79;100854.91;5411575;32;35742;-78
2022/07/20 05:26:20;;;;;;;;;;;;;;;29.37;27.86;100848.53;5432829;32;34662;-64
2022/07/20 05:29:22;;;;;;;;;;;;;;;28.61;28.66;100849.63;5411181;32;34781;-80
2022/07/20 05:32:24;;;;;;;;;;;;;;;29.74;27.08;100849.84;5428219;32;34752;-63
2022/07/20 05:35:26;;;;;;;;;;;;;;;29.47;27.76;100851.88;5417535;32;35000;-64
2022/07/20 05:38:28;;;;;;;;;;;;;;;30.28;26.43;100850.03;5426981;32;35509;-64
2022/07/20 05:41:30;;;;;;;;;;;;;;;29.24;27.87;100859.88;5405890;32;34394;-67
2022/07/20 05:44:31;;;;;;;;;;;;;;;29.25;27.80;100853.44;5413376;32;34665;-68
2022/07/20 05:47:33;;;;;;;;;;;;;;;30.81;25.69;100856.50;5399667;32;34218;-71
2022/07/20 05:50:35;;;;;;;;;;;;;;;30.77;25.63;100849.75;5412987;32;46254;-67
2022/07/20 05:53:38;;;;;;;;;;;;;;;30.43;26.04;100861.78;5425784;32;35455;-70
2022/07/20 05:56:40;;;;;;;;;;;;;;;29.60;26.65;100854.94;5402682;32;35992;-72
2022/07/20 05:59:42;;;;;;;;;;;;;;;31.26;24.66;100855.66;5406278;32;36992;-67
2022/07/20 06:02:44;;;;;;;;;;;;;;;30.39;25.29;100866.72;5415010;32;34559;-65
2022/07/20 06:05:46;;;;;;;;;;;;;;;29.98;26.24;100854.34;5413959;32;34255;-63
2022/07/20 06:08:48;;;;;;;;;;;;;;;31.71;23.79;100846.56;5428902;32;35563;-72
2022/07/20 06:12:10;;;;;;;;;;;;;;;32.44;23.08;100852.16;5413060;32;45339;-70
2022/07/20 06:15:12;;;;;;;;;;;;;;;33.16;22.03;100857.53;5430351;32;36993;-77
2022/07/20 06:18:14;;;;;;;;;;;;;;;32.46;22.92;100860.97;5405354;32;35014;-66
2022/07/20 06:21:23;;;;;;;;;;;;;;;31.66;23.63;100864.44;5397249;32;34188;-79
2022/07/20 06:24:25;;;;;;;;;;;;;;;32.50;22.24;100868.56;5429797;32;34199;-67
2022/07/20 06:27:27;;;;;;;;;;;;;;;32.64;22.13;100866.81;5414686;32;34479;-79
2022/07/20 06:30:29;;;;;;;;;;;;;;;32.09;22.83;100865.50;5430199;32;35392;-73
2022/07/20 06:33:31;;;;;;;;;;;;;;;33.54;21.09;100852.62;5410379;32;35626;-67
2022/07/20 06:36:33;;;;;;;;;;;;;;;32.37;22.38;100867.56;5433547;32;35623;-65
2022/07/20 06:39:35;;;;;;;;;;;;;;;33.34;21.49;100865.22;5427546;32;34695;-65
2022/07/20 06:42:37;;;;;;;;;;;;;;;33.74;20.96;100852.75;5415508;32;44524;-70
2022/07/20 06:45:49;;;;;;;;;;;;;;;34.46;20.34;100848.78;5428799;32;34301;-70
2022/07/20 06:48:51;;;;;;;;;;;;;;;35.02;19.61;100856.66;5415775;32;34642;-69
2022/07/20 06:51:54;;;;;;;;;;;;;;;34.67;20.00;100847.75;5437946;32;34275;-64
2022/07/20 06:54:56;;;;;;;;;;;;;;;34.14;20.46;100842.94;5402546;32;35430;-64
2022/07/20 06:57:58;;;;;;;;;;;;;;;35.12;19.47;100846.16;5425711;32;35518;-68
2022/07/20 07:01:00;;;;;;;;;;;;;;;37.08;17.41;100841.28;5384671;32;34299;-71
2022/07/20 07:04:02;;;;;;;;;;;;;;;35.93;18.57;100839.56;5401644;32;34358;-84
2022/07/20 07:07:04;;;;;;;;;;;;;;;35.91;18.50;100837.06;5432122;32;34360;-72
2022/07/20 07:10:07;;;;;;;;;;;;;;;38.35;16.06;100827.97;5402268;32;44531;-80
2022/07/20 07:13:09;;;;;;;;;;;;;;;35.65;18.39;100837.94;5404871;32;35005;-70
2022/07/20 07:16:11;;;;;;;;;;;;;;;37.00;17.46;100830.63;5413648;32;34667;-72
2022/07/20 07:19:13;;;;;;;;;;;;;;;36.69;17.72;100836.09;5427052;32;34182;-73
2022/07/20 07:22:15;;;;;;;;;;;;;;;35.66;18.96;100836.03;5412855;32;33677;-72
2022/07/20 07:25:17;;;;;;;;;;;;;;;35.17;19.39;100835.47;5414748;32;34318;-70
2022/07/20 07:28:19;;;;;;;;;;;;;;;37.14;16.80;100829.44;5400469;32;855983;-69
2022/07/20 07:31:21;;;;;;;;;;;;;;;37.94;16.20;100823.22;5405659;32;34205;-71
2022/07/20 07:34:23;;;;;;;;;;;;;;;37.82;16.66;100825.03;5428396;32;34365;-71
2022/07/20 07:37:25;;;;;;;;;;;;;;;36.27;18.31;100833.78;5409856;32;33593;-74
2022/07/20 07:40:27;;;;;;;;;;;;;;;39.24;15.20;100826.22;5422529;32;36571;-70
2022/07/20 07:43:29;;;;;;;;;;;;;;;35.71;18.29;100830.78;5420969;32;35696;-76
2022/07/20 07:46:31;;;;;;;;;;;;;;;38.96;15.36;100823.28;5429508;32;34208;-78
2022/07/20 07:49:33;;;;;;;;;;;;;;;36.97;16.82;100827.47;5460246;32;36461;-89
2022/07/20 07:52:35;;;;;;;;;;;;;;;35.62;18.16;100821.13;5411891;32;45531;-76
2022/07/20 07:55:56;;;;;;;;;;;;;;;38.01;15.97;100813.00;5439625;32;34639;-82
2022/07/20 07:58:58;;;;;;;;;;;;;;;37.65;16.16;100811.06;5396514;32;34244;-74
2022/07/20 08:02:20;;;;;;;;;;;;;;;37.14;16.51;100810.25;5408604;32;34658;-71
2022/07/20 08:05:22;;;;;;;;;;;;;;;40.37;13.48;100801.12;5423639;32;35674;-71
2022/07/20 08:08:24;;;;;;;;;;;;;;;40.55;13.17;100809.22;5398197;32;35146;-69
2022/07/20 08:11:26;;;;;;;;;;;;;;;39.31;14.53;100815.09;5430162;32;34739;-72
2022/07/20 08:14:29;;;;;;;;;;;;;;;41.18;12.83;100802.59;5412548;32;45581;-67
2022/07/20 08:17:31;;;;;;;;;;;;;;;41.52;12.41;100802.53;5424442;32;35270;-69
2022/07/20 08:20:33;;;;;;;;;;;;;;;40.74;12.99;100798.81;5420996;32;34378;-71
2022/07/20 08:23:36;;;;;;;;;;;;;;;40.74;12.91;100801.56;5410019;32;43479;-68
2022/07/20 08:26:37;;;;;;;;;;;;;;;41.44;12.04;100801.06;5415763;32;36197;-68
2022/07/20 08:29:39;;;;;;;;;;;;;;;41.47;12.14;100802.47;5422113;32;35681;-72
2022/07/20 08:32:41;;;;;;;;;;;;;;;42.27;11.39;100798.28;5428974;32;36053;-71
2022/07/20 08:35:44;;;;;;;;;;;;;;;41.17;12.10;100806.44;5413790;32;34137;-69
2022/07/20 08:38:46;;;;;;;;;;;;;;;40.11;12.93;100800.63;5420952;32;34287;-72
2022/07/20 08:41:48;;;;;;;;;;;;;;;42.55;10.86;100799.94;5407202;32;35566;-71
2022/07/20 08:44:50;;;;;;;;;;;;;;;40.63;12.17;100792.28;5414596;32;34205;-65
2022/07/20 08:47:52;;;;;;;;;;;;;;;40.36;12.38;100800.28;5429684;32;33960;-65
2022/07/20 08:50:58;;;;;;;;;;;;;;;38.96;13.33;100793.88;5412282;32;34273;-67
2022/07/20 08:54:01;;;;;;;;;;;;;;;38.61;13.91;100799.28;5434698;32;34194;-68
2022/07/20 08:57:06;;;;;;;;;;;;;;;37.96;14.38;100785.41;5418142;32;34162;-66
2022/07/20 09:00:09;;;;;;;;;;;;;;;42.18;10.98;100765.59;5400791;32;44715;-67
2022/07/20 09:03:11;;;;;;;;;;;;;;;40.82;12.11;100777.16;5428484;32;34268;-69
2022/07/20 09:06:13;;;;;;;;;;;;;;;41.76;11.49;100786.63;5421253;32;34333;-68
2022/07/20 09:09:16;;;;;;;;;;;;;;;41.21;11.74;100782.75;5432443;32;34504;-72
2022/07/20 09:12:19;;;;;;;;;;;;;;;41.84;11.44;100770.44;5396223;32;34229;-66
2022/07/20 09:15:43;;;;;;;;;;;;;;;43.92;10.05;100764.09;5434455;32;34208;-75
2022/07/20 09:18:45;;;;;;;;;;;;;;;43.91;9.92;100763.28;5422041;32;34368;-69
2022/07/20 09:21:48;;;;;;;;;;;;;;;43.41;10.29;100764.72;5421425;32;34041;-69
2022/07/20 09:24:52;;;;;;;;;;;;;;;43.37;10.29;100765.50;5428068;32;34286;-70
2022/07/20 09:27:55;;;;;;;;;;;;;;;41.63;11.56;100754.69;5400252;32;34213;-68
2022/07/20 09:30:57;;;;;;;;;;;;;;;44.19;10.00;100752.88;5425438;32;35402;-69
2022/07/20 09:34:01;;;;;;;;;;;;;;;41.53;11.62;100751.78;5412246;32;34260;-70
2022/07/20 09:37:02;;;;;;;;;;;;;;;41.46;11.89;100756.66;5409346;32;34178;-68
2022/07/20 09:40:05;;;;;;;;;;;;;;;44.81;9.27;100751.78;5400772;32;34916;-70
2022/07/20 09:43:08;;;;;;;;;;;;;;;44.60;9.27;100748.22;5418438;32;45108;-68
2022/07/20 09:46:10;;;;;;;;;;;;;;;43.52;10.28;100754.53;5431819;32;34324;-80
2022/07/20 09:49:15;;;;;;;;;;;;;;;43.70;9.94;100740.22;5424421;32;35564;-79
2022/07/20 09:52:18;;;;;;;;;;;;;;;44.36;9.58;100731.25;5434672;32;35692;-69
2022/07/20 09:55:37;;;;;;;;;;;;;;;43.57;10.09;100740.72;5419861;32;43227;-75
2022/07/20 09:58:40;;;;;;;;;;;;;;;42.78;10.67;100736.06;5409744;32;34395;-76
2022/07/20 10:01:46;;;;;;;;;;;;;;;43.46;10.15;100728.75;5421382;32;36395;-76
2022/07/20 10:04:51;;;;;;;;;;;;;;;40.45;12.13;100738.25;5418332;32;35979;-74
2022/07/20 10:07:53;;;;;;;;;;;;;;;42.55;11.00;100728.09;5414875;32;34577;-71
2022/07/20 10:10:55;;;;;;;;;;;;;;;44.66;9.54;100726.88;5404166;32;35373;-71
2022/07/20 10:13:58;;;;;;;;;;;;;;;45.13;8.92;100729.31;5424537;32;33990;-75
2022/07/20 10:17:01;;;;;;;;;;;;;;;42.85;10.56;100727.53;5403062;32;34512;-81
2022/07/20 10:20:03;;;;;;;;;;;;;;;42.14;10.93;100725.78;5423492;32;34498;-74
2022/07/20 10:23:14;;;;;;;;;;;;;;;41.91;11.25;100723.31;5432427;32;34245;-68
2022/07/20 10:26:23;;;;;;;;;;;;;;;41.11;11.60;100719.22;5419046;32;34498;-81
2022/07/20 10:29:33;;;;;;;;;;;;;;;42.19;10.97;100714.00;5420178;32;35512;-68
2022/07/20 10:32:35;;;;;;;;;;;;;;;41.45;11.43;100713.62;5416319;32;34230;-73
2022/07/20 10:35:38;;;;;;;;;;;;;;;45.26;8.71;100706.50;5407099;32;46504;-69
2022/07/20 10:38:40;;;;;;;;;;;;;;;43.45;10.13;100699.44;5427801;32;35266;-70
2022/07/20 10:41:50;;;;;;;;;;;;;;;43.05;10.45;100699.22;5415481;32;35679;-70
2022/07/20 10:44:52;;;;;;;;;;;;;;;45.00;8.87;100697.44;5448156;32;34675;-80
2022/07/20 10:48:20;;;;;;;;;;;;;;;45.68;8.35;100690.53;5425637;32;34279;-81
2022/07/20 10:51:22;;;;;;;;;;;;;;;46.97;7.48;100690.94;5424906;32;34397;-82
2022/07/20 10:54:30;;;;;;;;;;;;;;;46.62;7.62;100683.75;5419079;32;34862;-81
2022/07/20 10:57:32;;;;;;;;;;;;;;;45.09;8.57;100693.00;5418466;32;35636;-74
2022/07/20 11:00:35;;;;;;;;;;;;;;;45.65;8.30;100676.09;5412888;32;34198;-75
2022/07/20 11:03:39;;;;;;;;;;;;;;;45.35;8.36;100679.88;5425462;32;44307;-69
2022/07/20 11:06:41;;;;;;;;;;;;;;;43.46;9.72;100678.97;5437309;32;35419;-78
2022/07/20 11:09:43;;;;;;;;;;;;;;;43.71;9.51;100674.63;5424730;32;34154;-71
2022/07/20 11:12:52;;;;;;;;;;;;;;;47.12;7.44;100664.88;5414788;32;35477;-74
2022/07/20 11:15:57;;;;;;;;;;;;;;;46.04;7.78;100649.50;5417502;32;34505;-74
2022/07/20 11:19:06;;;;;;;;;;;;;;;48.15;6.62;100654.00;5406928;32;46639;-79
2022/07/20 11:22:09;;;;;;;;;;;;;;;47.45;6.90;100654.75;5441881;32;34657;-86
2022/07/20 11:25:11;;;;;;;;;;;;;;;47.39;6.89;100649.53;5411437;32;35559;-81
2022/07/20 11:28:13;;;;;;;;;;;;;;;44.88;8.34;100652.53;5432718;32;35409;-76
2022/07/20 11:31:16;;;;;;;;;;;;;;;46.59;7.41;100639.06;5433661;32;34113;-80
2022/07/20 11:34:18;;;;;;;;;;;;;;;46.63;7.56;100640.97;5417590;32;34223;-82
2022/07/20 11:37:20;;;;;;;;;;;;;;;46.75;7.14;100640.53;5436028;32;34464;-70
2022/07/20 11:40:23;;;;;;;;;;;;;;;48.24;6.36;100637.41;5419603;32;35683;-72
2022/07/20 11:43:25;;;;;;;;;;;;;;;44.03;8.85;100632.91;5417269;32;34392;-81
2022/07/20 11:46:27;;;;;;;;;;;;;;;47.81;6.93;100631.16;5403532;32;34143;-72
2022/07/20 11:49:30;;;;;;;;;;;;;;;46.02;7.87;100630.34;5422196;32;34367;-70
2022/07/20 11:52:36;;;;;;;;;;;;;;;47.08;7.07;100624.03;5417987;32;34849;-69
2022/07/20 11:55:38;;;;;;;;;;;;;;;44.81;8.52;100625.09;5413918;32;44174;-75
2022/07/20 11:58:40;;;;;;;;;;;;;;;45.88;7.74;100626.56;5418756;32;35974;-67
2022/07/20 12:01:42;;;;;;;;;;;;;;;46.54;7.30;100623.25;5403953;32;34347;-76
2022/07/20 12:04:44;;;;;;;;;;;;;;;47.42;6.80;100623.91;5433809;32;34345;-68
2022/07/20 12:11:11;;;;;;;;;;;;;;;42.71;9.79;100619.41;5407409;32;44488;-71
2022/07/20 12:14:13;;;;;;;;;;;;;;;43.11;9.52;100607.72;5415041;32;34925;-69
2022/07/20 12:17:35;;;;;;;;;;;;;;;43.56;9.34;100606.25;5416187;32;35945;-67
2022/07/20 12:20:37;;;;;;;;;;;;;;;44.25;8.92;100607.72;5434493;32;44722;-70
2022/07/20 12:23:39;;;;;;;;;;;;;;;44.07;9.17;100606.31;5421849;32;36006;-73
2022/07/20 12:26:43;;;;;;;;;;;;;;;42.32;9.84;100603.09;5412755;32;34102;-68
2022/07/20 12:29:45;;;;;;;;;;;;;;;39.90;11.77;100608.66;5409556;32;35708;-69
2022/07/20 12:33:02;;;;;;;;;;;;;;;39.48;12.40;100607.06;5416396;32;34268;-72
2022/07/20 12:36:05;;;;;;;;;;;;;;;40.42;11.53;100598.28;5428741;32;34363;-72
2022/07/20 12:39:36;;;;;;;;;;;;;;;40.25;11.55;100605.72;5413287;32;38242;-72
2022/07/20 12:42:37;;;;;;;;;;;;;;;40.31;11.39;100604.72;5418653;32;46137;-71
2022/07/20 12:45:40;;;;;;;;;;;;;;;39.39;12.34;100592.00;5426304;32;34045;-72
2022/07/20 12:48:44;;;;;;;;;;;;;;;39.77;12.13;100582.31;5413968;32;34215;-71
2022/07/20 12:51:46;;;;;;;;;;;;;;;38.66;12.79;100593.44;5430049;32;35550;-69
2022/07/20 12:54:48;;;;;;;;;;;;;;;37.74;13.74;100581.22;5403265;32;34253;-69
2022/07/20 12:58:04;;;;;;;;;;;;;;;37.81;13.75;100587.50;5420160;32;35694;-66
2022/07/20 13:01:06;;;;;;;;;;;;;;;37.96;13.35;100574.16;5402123;32;43855;-68
2022/07/20 13:04:08;;;;;;;;;;;;;;;36.99;14.28;100573.34;5425529;32;35791;-66
2022/07/20 13:07:10;;;;;;;;;;;;;;;38.86;12.75;100565.63;5412225;32;35766;-71
2022/07/20 13:10:12;;;;;;;;;;;;;;;37.85;13.37;100574.97;5402506;32;33501;-70
2022/07/20 13:13:14;;;;;;;;;;;;;;;37.30;14.17;100569.59;5435784;32;35812;-74
2022/07/20 13:16:17;;;;;;;;;;;;;;;38.26;13.51;100562.28;5420067;32;32258;-66
2022/07/20 13:19:20;;;;;;;;;;;;;;;37.95;13.60;100556.03;5433922;32;34276;-69
2022/07/20 13:22:22;;;;;;;;;;;;;;;37.98;13.62;100563.78;5417063;32;34294;-71
2022/07/20 13:25:24;;;;;;;;;;;;;;;38.18;13.29;100558.78;5426430;32;36632;-70
2022/07/20 13:28:27;;;;;;;;;;;;;;;38.73;12.79;100555.72;5435600;32;34542;-72
2022/07/20 13:31:30;;;;;;;;;;;;;;;38.17;13.27;100556.28;5418679;32;35491;-70
2022/07/20 13:34:52;;;;;;;;;;;;;;;38.31;13.22;100555.00;5434315;32;36457;-71
2022/07/20 13:37:53;;;;;;;;;;;;;;;37.87;13.45;100559.97;5409252;32;34103;-66
2022/07/20 13:40:56;;;;;;;;;;;;;;;37.08;14.17;100561.00;5427221;32;34798;-68
2022/07/20 13:43:58;;;;;;;;;;;;;;;38.30;13.10;100539.63;5426321;32;34049;-67
2022/07/20 13:47:01;;;;;;;;;;;;;;;37.68;13.66;100548.19;5416885;32;33961;-66
2022/07/20 13:50:05;;;;;;;;;;;;;;;38.50;13.11;100542.00;5415905;32;34338;-66
2022/07/20 13:53:07;;;;;;;;;;;;;;;38.52;13.04;100542.59;5415264;32;44545;-70
2022/07/20 13:56:09;;;;;;;;;;;;;;;38.34;13.58;100531.75;5430702;32;35138;-70
2022/07/20 13:59:11;;;;;;;;;;;;;;;38.63;13.09;100527.16;5399155;32;35648;-70
2022/07/20 14:02:13;;;;;;;;;;;;;;;38.20;13.35;100529.22;5395534;32;35518;-68
2022/07/20 14:05:15;;;;;;;;;;;;;;;37.85;13.57;100523.69;5426236;32;34222;-72
2022/07/20 14:08:17;;;;;;;;;;;;;;;38.09;13.58;100513.56;5423338;32;35842;-73
2022/07/20 14:11:21;;;;;;;;;;;;;;;38.18;13.53;100522.28;5429755;32;35385;-69
2022/07/20 14:14:23;;;;;;;;;;;;;;;38.17;13.43;100518.69;5420641;32;35411;-69
2022/07/20 14:17:25;;;;;;;;;;;;;;;37.46;13.79;100519.63;5433744;32;34669;-69
2022/07/20 14:20:27;;;;;;;;;;;;;;;37.50;13.82;100506.28;5420912;32;34166;-69
2022/07/20 14:23:49;;;;;;;;;;;;;;;37.36;13.82;100502.91;5419065;32;33542;-68
2022/07/20 14:26:51;;;;;;;;;;;;;;;36.41;14.61;100508.88;5425030;32;34405;-69
2022/07/20 14:29:53;;;;;;;;;;;;;;;37.62;13.79;100510.75;5409737;32;35482;-69
2022/07/20 14:32:56;;;;;;;;;;;;;;;37.06;14.10;100502.88;5422811;32;34613;-69
2022/07/20 14:35:58;;;;;;;;;;;;;;;37.17;13.92;100506.75;5404135;32;35025;-68
2022/07/20 14:39:00;;;;;;;;;;;;;;;37.29;14.01;100502.97;5411095;32;34095;-67
2022/07/20 14:42:03;;;;;;;;;;;;;;;37.53;13.79;100501.16;5410598;32;35973;-68
2022/07/20 14:45:05;;;;;;;;;;;;;;;37.54;13.68;100508.31;5417007;32;44595;-70
2022/07/20 14:48:07;;;;;;;;;;;;;;;37.39;13.60;100499.69;5416453;32;44413;-69
2022/07/20 14:51:09;;;;;;;;;;;;;;;37.71;13.52;100488.44;5418734;32;35202;-69
2022/07/20 14:54:11;;;;;;;;;;;;;;;37.58;13.68;100487.59;5440889;32;35067;-69
2022/07/20 14:57:13;;;;;;;;;;;;;;;37.68;13.58;100479.62;5410277;32;36623;-69
2022/07/20 15:00:15;;;;;;;;;;;;;;;38.14;13.19;100478.03;5411021;32;34730;-69
2022/07/20 15:03:17;;;;;;;;;;;;;;;37.92;13.69;100461.31;5429435;32;35144;-70
2022/07/20 15:06:19;;;;;;;;;;;;;;;38.18;13.04;100470.97;5418442;32;34827;-68
2022/07/20 15:09:21;;;;;;;;;;;;;;;37.98;13.55;100465.00;5444103;32;35173;-69
2022/07/20 15:12:23;;;;;;;;;;;;;;;37.57;13.83;100468.63;5423232;32;34902;-68
2022/07/20 15:15:25;;;;;;;;;;;;;;;37.73;13.70;100461.63;5441397;32;35363;-69
2022/07/20 15:18:27;;;;;;;;;;;;;;;37.62;13.74;100457.81;5427528;32;35552;-69
2022/07/20 15:21:29;;;;;;;;;;;;;;;37.81;13.66;100459.41;5425224;32;35219;-68
2022/07/20 15:24:31;;;;;;;;;;;;;;;37.98;13.50;100454.03;5429710;32;34660;-69
2022/07/20 15:27:33;;;;;;;;;;;;;;;37.97;13.60;100454.28;5415460;32;34763;-70
2022/07/20 15:30:35;;;;;;;;;;;;;;;37.95;13.89;100457.28;5434826;32;34800;-68
2022/07/20 15:33:37;;;;;;;;;;;;;;;37.92;13.70;100455.00;5401753;32;46777;-69
2022/07/20 15:36:41;;;;;;;;;;;;;;;38.49;13.40;100457.94;5425759;32;36393;-69
2022/07/20 15:39:45;;;;;;;;;;;;;;;38.65;13.04;100448.97;5415000;32;38361;-68
2022/07/20 15:42:47;;;;;;;;;;;;;;;38.69;12.91;100441.06;5435545;32;35249;-68
2022/07/20 15:45:49;;;;;;;;;;;;;;;38.41;13.00;100437.22;5431915;32;35566;-69
2022/07/20 15:48:51;;;;;;;;;;;;;;;37.72;13.66;100449.81;5393729;32;34997;-69